createdAt,value
2019-03-01T00:01:16.100Z,9.80
2019-03-01T00:04:12.684Z,9.80
2019-03-01T00:07:11.637Z,9.90
2019-03-01T00:10:02.154Z,9.80
2019-03-01T00:13:03.363Z,9.90
2019-03-01T00:15:52.223Z,9.90
2019-03-01T00:18:49.557Z,9.90
2019-03-01T00:21:48.274Z,9.80
2019-03-01T00:25:18.843Z,9.80
2019-03-01T00:28:38.509Z,9.80
2019-03-01T00:31:41.326Z,9.70
2019-03-01T00:34:46.301Z,9.80
2019-03-01T00:37:51.479Z,9.70
2019-03-01T00:40:50.153Z,9.70
2019-03-01T00:44:05.154Z,9.70
2019-03-01T00:46:35.917Z,9.70
2019-03-01T00:49:06.748Z,9.70
2019-03-01T00:51:37.525Z,9.70
2019-03-01T00:54:08.484Z,9.70
2019-03-01T00:56:39.332Z,9.70
2019-03-01T00:59:10.106Z,9.70
2019-03-01T01:01:40.957Z,9.60
2019-03-01T01:04:11.780Z,9.60
2019-03-01T01:06:42.559Z,9.60
2019-03-01T01:09:13.517Z,9.70
2019-03-01T01:11:44.280Z,9.60
2019-03-01T01:14:15.064Z,9.60
2019-03-01T01:16:45.872Z,9.60
2019-03-01T01:19:16.631Z,9.70
2019-03-01T01:21:47.434Z,9.70
2019-03-01T01:24:18.282Z,9.60
2019-03-01T01:26:49.126Z,9.60
2019-03-01T01:29:19.977Z,9.60
2019-03-01T01:31:51.107Z,9.60
2019-03-01T01:34:21.891Z,9.60
2019-03-01T01:36:52.646Z,9.60
2019-03-01T01:39:23.398Z,9.60
2019-03-01T01:41:54.174Z,9.50
2019-03-01T01:44:24.978Z,9.60
2019-03-01T01:46:55.775Z,9.50
2019-03-01T01:49:26.546Z,9.50
2019-03-01T01:51:58.368Z,9.50
2019-03-01T01:54:29.194Z,9.50
2019-03-01T01:56:59.974Z,9.50
2019-03-01T01:59:30.736Z,9.50
2019-03-01T02:02:01.526Z,9.50
2019-03-01T02:04:32.278Z,9.50
2019-03-01T02:07:03.060Z,9.50
2019-03-01T02:09:35.542Z,9.40
2019-03-01T02:12:06.407Z,9.40
2019-03-01T02:14:37.167Z,9.50
2019-03-01T02:17:09.810Z,9.50
2019-03-01T02:19:41.892Z,9.50
2019-03-01T02:22:12.704Z,9.50
2019-03-01T02:24:43.467Z,9.40
2019-03-01T02:27:25.452Z,9.40
2019-03-01T02:29:56.601Z,9.40
2019-03-01T02:32:47.790Z,9.40
2019-03-01T02:35:23.452Z,9.40
2019-03-01T02:37:54.275Z,9.40
2019-03-01T02:40:25.051Z,9.30
2019-03-01T02:42:55.814Z,9.30
2019-03-01T02:45:26.568Z,9.30
2019-03-01T02:47:57.331Z,9.30
2019-03-01T02:50:28.093Z,9.20
2019-03-01T02:52:58.863Z,9.20
2019-03-01T02:55:29.647Z,9.20
2019-03-01T02:58:00.420Z,9.20
2019-03-01T03:00:31.413Z,9.20
2019-03-01T03:03:02.220Z,9.20
2019-03-01T03:05:34.736Z,9.20
2019-03-01T03:08:07.477Z,9.20
2019-03-01T03:10:38.303Z,9.20
2019-03-01T03:13:10.218Z,9.20
2019-03-01T03:15:44.506Z,9.20
2019-03-01T03:18:15.315Z,9.20
2019-03-01T03:20:47.318Z,9.10
2019-03-01T03:23:18.286Z,9.20
2019-03-01T03:25:49.073Z,9.10
2019-03-01T03:28:19.927Z,9.10
2019-03-01T03:30:51.960Z,9.10
2019-03-01T03:33:22.855Z,9.20
2019-03-01T03:35:53.696Z,9.10
2019-03-01T03:38:24.534Z,9.20
2019-03-01T03:40:55.454Z,9.20
2019-03-01T03:43:26.279Z,9.10
2019-03-01T03:45:57.043Z,9.10
2019-03-01T03:48:27.905Z,9.20
2019-03-01T03:50:58.677Z,9.10
2019-03-01T03:53:29.437Z,9.10
2019-03-01T03:56:00.199Z,9.10
2019-03-01T03:58:31.045Z,9.10
2019-03-01T04:01:02.023Z,9.10
2019-03-01T04:03:32.833Z,9.10
2019-03-01T04:06:03.580Z,9.10
2019-03-01T04:08:34.475Z,9.10
2019-03-01T04:11:05.222Z,9.10
2019-03-01T04:13:36.076Z,9.00
2019-03-01T04:16:06.798Z,9.00
2019-03-01T04:18:37.557Z,9.10
2019-03-01T04:21:09.599Z,9.00
2019-03-01T04:23:40.417Z,9.00
2019-03-01T04:26:11.364Z,9.10
2019-03-01T04:28:42.289Z,9.10
2019-03-01T04:31:13.151Z,9.10
2019-03-01T04:33:43.935Z,9.10
2019-03-01T04:36:14.865Z,9.10
2019-03-01T04:38:45.635Z,9.10
2019-03-01T04:41:16.403Z,9.10
2019-03-01T04:43:47.198Z,9.10
2019-03-01T04:46:17.965Z,9.10
2019-03-01T04:48:48.727Z,9.10
2019-03-01T04:51:19.513Z,9.10
2019-03-01T04:53:50.274Z,9.10
2019-03-01T04:56:21.843Z,9.10
2019-03-01T04:58:53.132Z,9.10
2019-03-01T05:01:23.898Z,9.10
2019-03-01T05:03:54.660Z,9.10
2019-03-01T05:06:25.434Z,9.10
2019-03-01T05:08:56.242Z,9.10
2019-03-01T05:11:27.023Z,9.10
2019-03-01T05:13:57.841Z,9.10
2019-03-01T05:16:28.687Z,9.10
2019-03-01T05:18:59.479Z,9.10
2019-03-01T05:21:30.500Z,9.00
2019-03-01T05:24:01.277Z,9.10
2019-03-01T05:26:32.135Z,9.00
2019-03-01T05:29:03.797Z,9.00
2019-03-01T05:31:34.618Z,9.00
2019-03-01T05:34:05.398Z,9.00
2019-03-01T05:36:37.185Z,9.00
2019-03-01T05:39:07.971Z,9.00
2019-03-01T05:41:38.923Z,9.00
2019-03-01T05:44:11.410Z,9.00
2019-03-01T05:46:42.206Z,9.00
2019-03-01T05:49:13.112Z,9.00
2019-03-01T05:51:43.997Z,9.00
2019-03-01T05:54:14.765Z,9.00
2019-03-01T05:56:45.552Z,9.00
2019-03-01T05:59:18.974Z,9.00
2019-03-01T06:02:40.004Z,9.00
2019-03-01T06:05:14.353Z,9.00
2019-03-01T06:08:01.041Z,9.00
2019-03-01T06:10:46.782Z,9.00
2019-03-01T06:13:51.011Z,9.00
2019-03-01T06:16:49.159Z,9.10
2019-03-01T06:20:06.584Z,9.00
2019-03-01T06:23:14.624Z,9.00
2019-03-01T06:26:33.612Z,9.00
2019-03-01T06:29:36.712Z,9.00
2019-03-01T06:32:47.682Z,9.00
2019-03-01T06:35:59.652Z,8.90
2019-03-01T06:39:05.339Z,8.90
2019-03-01T06:42:29.196Z,8.90
2019-03-01T06:45:38.136Z,8.90
2019-03-01T06:48:10.816Z,8.90
2019-03-01T06:50:54.478Z,8.90
2019-03-01T06:53:25.391Z,8.90
2019-03-01T06:55:59.741Z,8.90
2019-03-01T06:58:33.315Z,8.90
2019-03-01T07:01:08.527Z,8.90
2019-03-01T07:03:39.364Z,8.90
2019-03-01T07:06:10.259Z,8.90
2019-03-01T07:08:41.032Z,8.90
2019-03-01T07:11:11.932Z,8.90
2019-03-01T07:13:42.736Z,8.90
2019-03-01T07:16:13.686Z,8.90
2019-03-01T07:18:44.458Z,8.90
2019-03-01T07:21:15.247Z,8.90
2019-03-01T07:23:46.058Z,8.90
2019-03-01T07:26:16.867Z,8.80
2019-03-01T07:28:47.714Z,8.80
2019-03-01T07:31:19.439Z,8.80
2019-03-01T07:33:50.279Z,8.80
2019-03-01T07:36:21.055Z,8.90
2019-03-01T07:38:52.862Z,8.80
2019-03-01T07:41:23.696Z,8.90
2019-03-01T07:43:55.509Z,8.90
2019-03-01T07:46:26.408Z,8.90
2019-03-01T07:48:57.195Z,8.90
2019-03-01T07:51:30.707Z,8.90
2019-03-01T07:54:02.129Z,8.80
2019-03-01T07:56:36.988Z,8.80
2019-03-01T07:59:06.914Z,8.70
2019-03-01T08:01:37.715Z,8.80
2019-03-01T08:04:09.960Z,8.70
2019-03-01T08:06:42.265Z,8.70
2019-03-01T08:09:14.137Z,8.60
2019-03-01T08:11:45.013Z,8.60
2019-03-01T08:14:15.883Z,8.70
2019-03-01T08:16:46.717Z,8.60
2019-03-01T08:19:22.279Z,8.60
2019-03-01T08:21:50.363Z,8.50
2019-03-01T08:24:22.817Z,8.50
2019-03-01T08:26:53.736Z,8.50
2019-03-01T08:29:24.553Z,8.40
2019-03-01T08:31:56.726Z,8.40
2019-03-01T08:34:27.820Z,8.40
2019-03-01T08:36:58.750Z,8.40
2019-03-01T08:39:29.562Z,8.40
2019-03-01T08:42:01.364Z,8.30
2019-03-01T08:44:33.482Z,8.30
2019-03-01T08:47:04.352Z,8.30
2019-03-01T08:49:35.219Z,8.30
2019-03-01T08:52:06.142Z,8.30
2019-03-01T08:54:37.068Z,8.20
2019-03-01T08:57:07.936Z,8.20
2019-03-01T08:59:39.891Z,8.20
2019-03-01T09:02:11.936Z,8.20
2019-03-01T09:04:50.638Z,8.20
2019-03-01T09:07:15.630Z,8.20
2019-03-01T09:09:46.431Z,8.10
2019-03-01T09:12:17.270Z,8.10
2019-03-01T09:14:48.223Z,8.10
2019-03-01T09:17:18.999Z,8.10
2019-03-01T09:19:49.780Z,8.10
2019-03-01T09:22:20.576Z,8.10
2019-03-01T09:24:52.586Z,8.10
2019-03-01T09:27:26.668Z,8.10
2019-03-01T09:29:56.212Z,8.10
2019-03-01T09:32:30.435Z,8.00
2019-03-01T09:35:30.119Z,8.10
2019-03-01T09:38:00.968Z,8.00
2019-03-01T09:40:31.976Z,8.00
2019-03-01T09:43:02.844Z,8.00
2019-03-01T09:45:36.625Z,8.00
2019-03-01T09:48:08.682Z,8.00
2019-03-01T09:50:38.868Z,8.00
2019-03-01T09:53:11.053Z,8.00
2019-03-01T09:55:42.014Z,7.90
2019-03-01T09:58:12.903Z,7.90
2019-03-01T10:00:55.978Z,7.90
2019-03-01T10:03:19.207Z,7.90
2019-03-01T10:05:50.038Z,8.00
2019-03-01T10:08:21.013Z,8.00
2019-03-01T10:10:51.910Z,8.00
2019-03-01T10:13:22.750Z,7.90
2019-03-01T10:15:53.534Z,7.90
2019-03-01T10:18:26.164Z,7.90
2019-03-01T10:21:00.254Z,7.90
2019-03-01T10:23:31.089Z,7.90
2019-03-01T10:26:01.995Z,7.90
2019-03-01T10:28:32.927Z,7.90
2019-03-01T10:31:03.949Z,7.90
2019-03-01T10:33:35.821Z,8.00
2019-03-01T10:36:06.846Z,8.00
2019-03-01T10:38:37.711Z,8.00
2019-03-01T10:41:08.548Z,8.10
2019-03-01T10:43:39.358Z,8.00
2019-03-01T10:46:10.136Z,8.00
2019-03-01T10:48:40.931Z,8.10
2019-03-01T10:51:11.706Z,8.00
2019-03-01T10:53:43.621Z,8.10
2019-03-01T10:56:14.575Z,8.10
2019-03-01T10:58:45.393Z,8.20
2019-03-01T11:01:17.554Z,8.20
2019-03-01T11:03:48.487Z,8.20
2019-03-01T11:06:19.322Z,8.10
2019-03-01T11:08:50.239Z,8.10
2019-03-01T11:11:21.081Z,8.00
2019-03-01T11:13:51.998Z,8.00
2019-03-01T11:16:22.938Z,8.00
2019-03-01T11:18:53.785Z,8.00
2019-03-01T11:21:24.650Z,8.00
2019-03-01T11:23:56.665Z,7.90
2019-03-01T11:26:28.555Z,7.90
2019-03-01T11:28:59.340Z,7.90
2019-03-01T11:31:30.114Z,7.80
2019-03-01T11:34:01.836Z,7.70
2019-03-01T11:36:34.494Z,7.70
2019-03-01T11:39:06.713Z,7.60
2019-03-01T11:41:38.193Z,7.60
2019-03-01T11:44:09.209Z,7.50
2019-03-01T11:46:40.115Z,7.50
2019-03-01T11:49:11.074Z,7.50
2019-03-01T11:51:41.958Z,7.50
2019-03-01T11:54:14.850Z,7.50
2019-03-01T11:56:45.815Z,7.50
2019-03-01T11:59:16.614Z,7.50
2019-03-01T12:01:47.390Z,7.50
2019-03-01T12:04:18.472Z,7.50
2019-03-01T12:06:49.271Z,7.50
2019-03-01T12:09:20.163Z,7.40
2019-03-01T12:11:50.974Z,7.40
2019-03-01T12:14:22.423Z,7.30
2019-03-01T12:16:54.842Z,7.30
2019-03-01T12:19:27.567Z,7.30
2019-03-01T12:22:00.012Z,7.20
2019-03-01T12:24:31.987Z,7.10
2019-03-01T12:27:02.866Z,7.10
2019-03-01T12:29:33.827Z,7.00
2019-03-01T12:32:04.848Z,7.10
2019-03-01T12:34:35.840Z,7.00
2019-03-01T12:37:08.331Z,7.10
2019-03-01T12:39:39.256Z,7.10
2019-03-01T12:42:10.149Z,7.10
2019-03-01T12:44:41.181Z,7.10
2019-03-01T12:47:14.749Z,7.20
2019-03-01T12:49:45.832Z,7.20
2019-03-01T12:52:16.695Z,7.20
2019-03-01T12:54:47.572Z,7.30
2019-03-01T12:57:18.356Z,7.20
2019-03-01T12:59:49.250Z,7.20
2019-03-01T13:02:20.206Z,7.20
2019-03-01T13:04:53.601Z,7.20
2019-03-01T13:07:23.582Z,7.10
2019-03-01T13:09:54.385Z,7.10
2019-03-01T13:12:26.177Z,7.10
2019-03-01T13:14:58.062Z,7.10
2019-03-01T13:17:29.294Z,7.10
2019-03-01T13:20:01.114Z,7.20
2019-03-01T13:22:32.854Z,7.20
2019-03-01T13:25:04.846Z,7.20
2019-03-01T13:27:35.700Z,7.20
2019-03-01T13:30:07.751Z,7.20
2019-03-01T13:32:43.366Z,7.20
2019-03-01T13:35:17.019Z,7.20
2019-03-01T13:37:51.937Z,7.20
2019-03-01T13:40:24.402Z,7.20
2019-03-01T13:42:56.344Z,7.10
2019-03-01T13:45:28.283Z,7.00
2019-03-01T13:47:59.059Z,7.00
2019-03-01T13:50:31.686Z,7.00
2019-03-01T13:53:02.452Z,7.10
2019-03-01T13:55:33.304Z,7.10
2019-03-01T13:58:04.136Z,7.10
2019-03-01T14:00:35.167Z,6.90
2019-03-01T14:03:06.135Z,6.90
2019-03-01T14:05:37.229Z,6.80
2019-03-01T14:08:09.254Z,6.80
2019-03-01T14:10:41.758Z,6.80
2019-03-01T14:13:14.414Z,6.80
2019-03-01T14:15:45.589Z,6.80
2019-03-01T14:18:16.448Z,6.90
2019-03-01T14:20:47.508Z,6.90
2019-03-01T14:23:21.220Z,6.90
2019-03-01T14:25:51.790Z,6.80
2019-03-01T14:28:22.622Z,6.80
2019-03-01T14:30:53.512Z,6.80
2019-03-01T14:33:24.377Z,6.80
2019-03-01T14:35:59.223Z,6.80
2019-03-01T14:38:29.896Z,6.90
2019-03-01T14:41:02.425Z,6.90
2019-03-01T14:43:33.359Z,6.90
2019-03-01T14:46:04.275Z,6.90
2019-03-01T14:48:35.232Z,6.80
2019-03-01T14:51:07.091Z,6.70
2019-03-01T14:53:39.708Z,6.70
2019-03-01T14:56:14.257Z,6.70
2019-03-01T14:58:56.020Z,6.80
2019-03-01T15:01:50.758Z,6.80
2019-03-01T15:04:28.226Z,6.80
2019-03-01T15:06:56.172Z,6.80
2019-03-01T15:09:27.225Z,6.80
2019-03-01T15:11:58.019Z,6.80
2019-03-01T15:14:29.056Z,6.80
2019-03-01T15:16:59.882Z,6.70
2019-03-01T15:19:30.712Z,6.70
2019-03-01T15:22:03.755Z,6.70
2019-03-01T15:24:36.179Z,6.70
2019-03-01T15:27:07.783Z,6.70
2019-03-01T15:29:38.662Z,6.60
2019-03-01T15:32:09.776Z,6.60
2019-03-01T15:34:42.252Z,6.60
2019-03-01T15:37:15.794Z,6.50
2019-03-01T15:39:51.245Z,6.40
2019-03-01T15:42:21.391Z,6.30
2019-03-01T15:44:53.269Z,6.30
2019-03-01T15:47:26.613Z,6.40
2019-03-01T15:49:57.003Z,6.20
2019-03-01T15:52:27.809Z,6.20
2019-03-01T15:54:58.682Z,6.10
2019-03-01T15:57:29.510Z,6.00
2019-03-01T16:00:00.386Z,6.00
2019-03-01T16:02:31.183Z,6.00
2019-03-01T16:05:01.998Z,6.00
2019-03-01T16:07:33.871Z,6.00
2019-03-01T16:10:05.270Z,6.00
2019-03-01T16:12:36.362Z,6.00
2019-03-01T16:15:09.430Z,6.00
2019-03-01T16:17:40.278Z,6.00
2019-03-01T16:20:12.821Z,6.10
2019-03-01T16:22:43.819Z,6.10
2019-03-01T16:25:17.209Z,6.10
2019-03-01T16:27:46.738Z,6.10
2019-03-01T16:30:18.360Z,6.00
2019-03-01T16:32:50.928Z,6.00
2019-03-01T16:35:22.132Z,5.90
2019-03-01T16:37:53.601Z,5.90
2019-03-01T16:40:24.807Z,6.00
2019-03-01T16:42:55.608Z,6.00
2019-03-01T16:45:26.528Z,6.10
2019-03-01T16:47:57.547Z,6.00
2019-03-01T16:50:29.626Z,6.00
2019-03-01T16:53:04.099Z,6.00
2019-03-01T16:55:33.176Z,6.00
2019-03-01T16:58:07.436Z,6.00
2019-03-01T17:00:36.618Z,6.00
2019-03-01T17:03:07.808Z,6.00
2019-03-01T17:05:39.719Z,5.90
2019-03-01T17:08:10.687Z,5.90
2019-03-01T17:10:41.609Z,5.90
2019-03-01T17:13:12.466Z,5.90
2019-03-01T17:15:45.579Z,5.80
2019-03-01T17:18:15.905Z,5.80
2019-03-01T17:20:46.784Z,5.80
2019-03-01T17:57:09.016Z,5.70
2019-03-01T17:59:40.117Z,5.70
2019-03-01T18:02:14.952Z,5.70
2019-03-01T18:04:45.086Z,5.70
2019-03-01T18:07:17.656Z,5.80
2019-03-01T18:09:51.937Z,5.80
2019-03-01T18:12:21.599Z,5.70
2019-03-01T18:14:54.658Z,5.70
2019-03-01T18:17:25.899Z,5.70
2019-03-01T18:19:58.812Z,5.70
2019-03-01T18:22:29.796Z,5.70
2019-03-01T18:25:00.893Z,5.70
2019-03-01T18:27:32.822Z,5.70
2019-03-01T18:30:05.627Z,5.70
2019-03-01T18:32:36.819Z,5.70
2019-03-01T18:35:11.481Z,5.70
2019-03-01T18:37:42.164Z,5.70
2019-03-01T18:40:13.466Z,5.70
2019-03-01T18:42:45.701Z,5.70
2019-03-01T18:45:17.307Z,5.70
2019-03-01T18:47:48.377Z,5.70
2019-03-01T18:50:27.559Z,5.70
2019-03-01T18:52:57.503Z,5.70
2019-03-01T18:55:28.441Z,5.70
2019-03-01T18:58:01.314Z,5.70
2019-03-01T19:00:36.892Z,5.70
2019-03-01T19:03:08.224Z,5.70
2019-03-01T19:05:40.237Z,5.70
2019-03-01T19:08:12.909Z,5.70
2019-03-01T19:10:43.841Z,5.70
2019-03-01T19:13:14.849Z,5.60
2019-03-01T19:15:48.486Z,5.60
2019-03-01T19:18:20.375Z,5.60
2019-03-01T19:20:51.653Z,5.60
2019-03-01T19:23:22.591Z,5.60
2019-03-01T19:25:53.844Z,5.60
2019-03-01T19:28:26.758Z,5.60
2019-03-01T19:30:59.626Z,5.60
2019-03-01T19:33:30.633Z,5.60
2019-03-01T19:36:03.590Z,5.60
2019-03-01T19:38:34.546Z,5.60
2019-03-01T19:41:05.537Z,5.60
2019-03-01T19:43:37.575Z,5.60
2019-03-01T19:46:08.562Z,5.60
2019-03-01T19:48:39.578Z,5.60
2019-03-01T19:51:11.891Z,5.50
2019-03-01T19:53:42.892Z,5.50
2019-03-01T19:56:13.897Z,5.50
2019-03-01T19:58:48.083Z,5.60
2019-03-01T20:01:17.978Z,5.60
2019-03-01T20:03:49.595Z,5.60
2019-03-01T20:06:21.732Z,5.50
2019-03-01T20:08:52.802Z,5.60
2019-03-01T20:11:26.720Z,5.50
2019-03-01T20:13:58.010Z,5.50
2019-03-01T20:16:29.127Z,5.50
2019-03-01T20:19:00.223Z,5.50
2019-03-01T20:21:31.325Z,5.50
2019-03-01T20:24:05.267Z,5.50
2019-03-01T20:26:34.999Z,5.50
2019-03-01T20:29:07.114Z,5.50
2019-03-01T20:31:40.540Z,5.50
2019-03-01T20:34:10.647Z,5.50
2019-03-01T20:36:41.875Z,5.50
2019-03-01T20:39:15.555Z,5.50
2019-03-01T20:41:46.603Z,5.50
2019-03-01T20:44:18.608Z,5.60
2019-03-01T20:46:50.612Z,5.60
2019-03-01T20:49:22.357Z,5.60
2019-03-01T20:51:53.244Z,5.60
2019-03-01T20:54:25.776Z,5.70
2019-03-01T20:56:57.538Z,5.70
2019-03-01T20:59:32.451Z,5.60
2019-03-01T21:02:03.553Z,5.60
2019-03-01T21:04:40.425Z,5.60
2019-03-01T21:07:12.448Z,5.70
2019-03-01T21:09:42.693Z,5.60
2019-03-01T21:12:13.772Z,5.60
2019-03-01T21:14:44.837Z,5.60
2019-03-01T21:17:20.364Z,5.60
2019-03-01T21:19:50.832Z,5.60
2019-03-01T21:22:21.738Z,5.60
2019-03-01T21:24:52.770Z,5.70
2019-03-01T21:27:25.983Z,5.70
2019-03-01T21:29:57.515Z,5.70
2019-03-01T21:32:28.506Z,5.70
2019-03-01T21:34:59.589Z,5.60
2019-03-01T21:37:30.716Z,5.60
2019-03-01T21:40:03.165Z,5.60
2019-03-01T21:42:35.468Z,5.60
2019-03-01T21:45:07.381Z,5.60
2019-03-01T21:47:38.225Z,5.60
2019-03-01T21:50:09.424Z,5.60
2019-03-01T21:52:40.315Z,5.60
2019-03-01T21:55:12.516Z,5.60
2019-03-01T21:57:43.587Z,5.50
2019-03-01T22:00:20.111Z,5.50
2019-03-01T22:02:52.934Z,5.50
2019-03-01T22:05:23.766Z,5.50
2019-03-01T22:07:54.785Z,5.50
2019-03-01T22:10:25.762Z,5.50
2019-03-01T22:13:00.093Z,5.50
2019-03-01T22:15:29.331Z,5.50
2019-03-01T22:18:01.395Z,5.40
2019-03-01T22:20:32.307Z,5.50
2019-03-01T22:23:03.247Z,5.40
2019-03-01T22:25:34.548Z,5.50
2019-03-01T22:28:06.919Z,5.40
2019-03-01T22:30:38.427Z,5.40
2019-03-01T22:33:09.322Z,5.40
2019-03-01T22:35:43.270Z,5.40
2019-03-01T22:38:12.897Z,5.40
2019-03-01T22:40:43.903Z,5.40
2019-03-01T22:43:14.720Z,5.50
2019-03-01T22:45:48.852Z,5.50
2019-03-01T22:48:19.899Z,5.50
2019-03-01T22:50:50.761Z,5.50
2019-03-01T22:53:21.961Z,5.50
2019-03-01T22:55:52.833Z,5.50
2019-03-01T22:58:23.734Z,5.40
2019-03-01T23:01:39.884Z,5.40
2019-03-01T23:04:11.131Z,5.40
2019-03-01T23:06:42.091Z,5.40
2019-03-01T23:09:17.092Z,5.40
2019-03-01T23:11:48.192Z,5.40
2019-03-01T23:14:21.437Z,5.40
2019-03-01T23:16:57.048Z,5.40
2019-03-01T23:19:29.414Z,5.40
2019-03-01T23:22:00.266Z,5.40
2019-03-01T23:24:31.673Z,5.40
2019-03-01T23:27:03.967Z,5.40
2019-03-01T23:29:34.886Z,5.40
2019-03-01T23:32:07.178Z,5.40
2019-03-01T23:34:42.592Z,5.50
2019-03-01T23:37:12.103Z,5.50
2019-03-01T23:39:45.720Z,5.40
2019-03-01T23:42:17.406Z,5.40
2019-03-01T23:44:49.172Z,5.40
2019-03-01T23:47:20.004Z,5.40
2019-03-01T23:49:51.820Z,5.40
2019-03-01T23:52:23.636Z,5.40
2019-03-01T23:54:54.509Z,5.50
2019-03-01T23:57:25.311Z,5.50
2019-03-01T23:59:58.726Z,5.50
